createdAt,value
2018-11-10T00:02:12.153Z,21.17
2018-11-10T00:04:41.377Z,19.50
2018-11-10T00:07:10.453Z,21.60
2018-11-10T00:09:39.594Z,19.23
2018-11-10T00:12:08.881Z,20.03
2018-11-10T00:14:38.594Z,20.87
2018-11-10T00:17:08.071Z,19.07
2018-11-10T00:19:37.562Z,18.87
2018-11-10T00:22:06.373Z,20.10
2018-11-10T00:24:42.133Z,19.70
2018-11-10T00:27:11.597Z,19.83
2018-11-10T00:29:40.871Z,20.60
2018-11-10T00:32:10.149Z,20.40
2018-11-10T00:34:39.609Z,20.07
2018-11-10T00:37:08.965Z,19.20
2018-11-10T00:39:38.061Z,20.07
2018-11-10T00:42:07.061Z,20.55
2018-11-10T00:44:35.785Z,21.82
2018-11-10T00:47:04.254Z,20.27
2018-11-10T00:49:33.861Z,20.17
2018-11-10T00:52:03.399Z,19.67
2018-11-10T00:54:32.606Z,20.20
2018-11-10T00:57:01.553Z,21.33
2018-11-10T00:59:31.036Z,20.40
2018-11-10T01:02:00.272Z,19.02
2018-11-10T01:04:29.821Z,20.55
2018-11-10T01:06:59.141Z,19.30
2018-11-10T01:09:28.615Z,20.12
2018-11-10T01:11:57.906Z,19.87
2018-11-10T01:14:27.185Z,18.17
2018-11-10T01:16:57.033Z,20.43
2018-11-10T01:19:25.970Z,19.30
2018-11-10T01:21:55.565Z,20.23
2018-11-10T01:24:24.742Z,19.32
2018-11-10T01:26:54.035Z,19.50
2018-11-10T01:29:24.060Z,20.43
2018-11-10T01:31:53.677Z,18.15
2018-11-10T01:34:23.000Z,20.32
2018-11-10T01:36:52.287Z,19.83
2018-11-10T01:39:21.868Z,19.87
2018-11-10T01:41:51.129Z,16.90
2018-11-10T01:44:20.712Z,18.77
2018-11-10T01:46:49.978Z,18.13
2018-11-10T01:49:19.275Z,18.70
2018-11-10T01:51:48.446Z,17.50
2018-11-10T01:54:19.349Z,17.08
2018-11-10T01:56:48.933Z,18.40
2018-11-10T01:59:20.101Z,17.37
2018-11-10T02:01:49.670Z,18.02
2018-11-10T02:04:19.210Z,16.77
2018-11-10T02:06:48.815Z,15.90
2018-11-10T02:09:19.162Z,17.50
2018-11-10T02:11:48.166Z,17.60
2018-11-10T02:14:17.430Z,16.87
2018-11-10T02:16:46.931Z,15.70
2018-11-10T02:19:22.989Z,15.95
2018-11-10T02:21:51.926Z,15.27
2018-11-10T02:24:20.875Z,16.00
2018-11-10T02:26:50.142Z,15.70
2018-11-10T02:29:19.702Z,16.25
2018-11-10T02:31:48.757Z,14.90
2018-11-10T02:34:19.114Z,13.58
2018-11-10T02:36:48.867Z,14.40
2018-11-10T02:39:19.413Z,14.58
2018-11-10T02:41:48.406Z,15.37
2018-11-10T02:44:19.059Z,15.08
2018-11-10T02:46:48.523Z,15.20
2018-11-10T02:49:19.294Z,15.30
2018-11-10T02:51:48.797Z,14.40
2018-11-10T02:54:19.268Z,13.13
2018-11-10T02:56:48.550Z,13.63
2018-11-10T02:59:19.301Z,13.38
2018-11-10T03:01:48.942Z,13.90
2018-11-10T03:04:19.398Z,13.68
2018-11-10T03:06:48.665Z,14.07
2018-11-10T03:09:19.057Z,13.70
2018-11-10T03:11:48.326Z,14.73
2018-11-10T03:14:17.607Z,14.50
2018-11-10T03:16:46.978Z,14.30
2018-11-10T03:19:16.241Z,13.60
2018-11-10T03:21:45.530Z,14.40
2018-11-10T03:24:14.310Z,12.60
2018-11-10T03:26:43.303Z,13.80
2018-11-10T03:29:12.842Z,15.07
2018-11-10T03:31:42.111Z,14.13
2018-11-10T03:34:11.389Z,13.70
2018-11-10T03:36:41.197Z,16.55
2018-11-10T03:39:10.241Z,16.47
2018-11-10T03:41:39.577Z,14.30
2018-11-10T03:44:08.719Z,14.43
2018-11-10T03:46:38.155Z,15.57
2018-11-10T03:49:07.425Z,15.33
2018-11-10T03:51:37.377Z,13.83
2018-11-10T03:54:06.327Z,14.40
2018-11-10T03:56:35.597Z,14.73
2018-11-10T03:59:04.937Z,14.83
2018-11-10T04:01:34.415Z,16.37
2018-11-10T04:04:03.698Z,14.10
2018-11-10T04:06:33.262Z,15.10
2018-11-10T04:09:02.547Z,13.90
2018-11-10T04:11:32.451Z,16.05
2018-11-10T04:14:01.718Z,12.40
2018-11-10T04:16:30.961Z,13.83
2018-11-10T04:19:00.237Z,14.30
2018-11-10T04:21:41.909Z,13.80
2018-11-10T04:24:19.557Z,15.17
2018-11-10T04:26:48.837Z,14.80
2018-11-10T04:29:19.186Z,14.33
2018-11-10T04:31:48.456Z,15.40
2018-11-10T04:34:17.454Z,16.37
2018-11-10T04:36:46.723Z,16.30
2018-11-10T04:39:16.339Z,15.80
2018-11-10T04:41:45.610Z,16.03
2018-11-10T04:44:15.186Z,15.30
2018-11-10T04:46:44.479Z,16.27
2018-11-10T04:49:14.048Z,16.15
2018-11-10T04:51:43.319Z,13.63
2018-11-10T04:59:22.706Z,14.23
2018-11-10T05:01:52.331Z,16.03
2018-11-10T05:04:22.773Z,16.00
2018-11-10T05:06:52.561Z,16.17
2018-11-10T05:09:21.882Z,16.00
2018-11-10T05:11:51.434Z,16.10
2018-11-10T05:14:21.029Z,16.60
2018-11-10T05:16:50.314Z,15.70
2018-11-10T05:19:19.222Z,13.60
2018-11-10T05:21:51.672Z,15.10
2018-11-10T05:24:21.524Z,16.77
2018-11-10T05:26:50.803Z,15.47
2018-11-10T05:29:20.380Z,16.90
2018-11-10T05:31:49.653Z,15.30
2018-11-10T05:34:19.686Z,14.95
2018-11-10T05:36:49.310Z,15.30
2018-11-10T05:39:19.625Z,16.30
2018-11-10T05:41:48.890Z,14.77
2018-11-10T05:44:19.578Z,15.78
2018-11-10T05:46:49.351Z,17.30
2018-11-10T05:49:20.005Z,16.35
2018-11-10T05:51:49.591Z,15.87
2018-11-10T05:54:19.774Z,16.65
2018-11-10T05:56:49.345Z,15.35
2018-11-10T05:59:19.857Z,13.93
2018-11-10T06:01:49.705Z,15.80
2018-11-10T06:04:19.790Z,15.85
2018-11-10T06:06:49.081Z,17.20
2018-11-10T06:09:19.712Z,14.80
2018-11-10T06:11:49.120Z,16.77
2018-11-10T06:14:19.873Z,15.60
2018-11-10T06:16:49.706Z,15.78
2018-11-10T06:19:19.746Z,13.85
2018-11-10T06:21:49.026Z,15.20
2018-11-10T06:24:19.804Z,13.78
2018-11-10T06:26:49.090Z,15.07
2018-11-10T06:29:19.901Z,15.98
2018-11-10T06:31:49.475Z,15.18
2018-11-10T06:34:19.581Z,14.58
2018-11-10T06:36:49.029Z,12.73
2018-11-10T06:39:19.798Z,14.20
2018-11-10T06:41:49.365Z,15.43
2018-11-10T06:44:19.890Z,14.83
2018-11-10T06:46:49.581Z,14.67
2018-11-10T06:49:19.842Z,14.15
2018-11-10T06:51:49.678Z,13.78
2018-11-10T06:54:20.315Z,14.40
2018-11-10T06:56:49.985Z,14.63
2018-11-10T06:59:20.238Z,13.80
2018-11-10T07:01:49.723Z,13.53
2018-11-10T07:04:19.942Z,13.90
2018-11-10T07:06:49.854Z,14.63
2018-11-10T07:09:19.923Z,13.20
2018-11-10T07:11:50.009Z,14.20
2018-11-10T07:14:20.074Z,13.47
2018-11-10T07:16:49.629Z,14.83
2018-11-10T07:19:19.562Z,14.10
2018-11-10T07:21:49.494Z,14.83
2018-11-10T07:24:20.173Z,13.75
2018-11-10T07:26:49.701Z,12.63
2018-11-10T07:29:20.212Z,7.95
2018-11-10T07:31:57.345Z,8.40
2018-11-10T07:34:26.858Z,7.40
2018-11-10T07:36:56.137Z,7.40
2018-11-10T07:39:26.158Z,7.62
2018-11-10T07:41:55.706Z,7.20
2018-11-10T07:44:24.977Z,6.30
2018-11-10T07:46:54.264Z,5.70
2018-11-10T07:49:23.691Z,6.25
2018-11-10T07:51:53.185Z,6.63
2018-11-10T07:54:22.787Z,7.20
2018-11-10T07:56:52.212Z,6.03
2018-11-10T07:59:21.785Z,6.20
2018-11-10T08:01:51.071Z,6.87
2018-11-10T08:04:20.410Z,6.77
2018-11-10T08:06:49.818Z,7.30
2018-11-10T08:09:19.997Z,6.20
2018-11-10T08:11:49.297Z,7.47
2018-11-10T08:14:20.178Z,7.60
2018-11-10T08:16:49.737Z,6.25
2018-11-10T08:19:19.650Z,7.55
2018-11-10T08:21:48.920Z,7.30
2018-11-10T08:24:18.476Z,6.50
2018-11-10T08:26:47.833Z,6.40
2018-11-10T08:29:17.106Z,5.53
2018-11-10T08:31:46.368Z,7.10
2018-11-10T08:34:15.946Z,6.67
2018-11-10T08:36:45.701Z,6.43
2018-11-10T08:39:15.093Z,7.20
2018-11-10T08:41:44.722Z,8.93
2018-11-10T08:44:13.994Z,7.50
2018-11-10T08:46:43.269Z,8.10
2018-11-10T08:49:12.831Z,7.65
2018-11-10T08:51:42.269Z,6.97
2018-11-10T08:54:11.489Z,6.40
2018-11-10T08:56:41.453Z,6.50
2018-11-10T08:59:10.789Z,4.87
2018-11-10T09:01:40.933Z,7.50
2018-11-10T09:04:10.410Z,7.70
2018-11-10T09:06:39.809Z,7.77
2018-11-10T09:09:08.738Z,6.00
2018-11-10T09:11:38.213Z,6.37
2018-11-10T09:14:07.766Z,5.20
2018-11-10T09:16:37.037Z,6.03
2018-11-10T09:19:05.963Z,7.33
2018-11-10T09:21:36.027Z,6.28
2018-11-10T09:24:05.158Z,6.40
2018-11-10T09:26:34.969Z,6.08
2018-11-10T09:29:03.914Z,6.13
2018-11-10T09:31:33.413Z,6.97
2018-11-10T09:34:06.063Z,5.53
2018-11-10T09:36:35.803Z,6.90
2018-11-10T09:39:04.374Z,7.80
2018-11-10T09:41:33.956Z,7.13
2018-11-10T09:44:03.209Z,6.67
2018-11-10T09:46:32.478Z,7.67
2018-11-10T09:49:01.664Z,6.57
2018-11-10T09:51:31.218Z,8.50
2018-11-10T09:54:00.475Z,6.60
2018-11-10T09:56:30.314Z,7.90
2018-11-10T09:58:59.972Z,7.45
2018-11-10T10:01:29.626Z,8.27
2018-11-10T10:03:58.972Z,6.60
2018-11-10T10:06:28.749Z,7.42
2018-11-10T10:08:58.184Z,7.77
2018-11-10T10:11:27.554Z,7.20
2018-11-10T10:13:56.926Z,6.90
2018-11-10T10:16:26.608Z,9.60
2018-11-10T10:18:56.024Z,6.00
2018-11-10T10:21:25.289Z,8.47
2018-11-10T10:23:54.581Z,10.07
2018-11-10T10:26:24.001Z,8.10
2018-11-10T10:28:53.364Z,6.03
2018-11-10T10:31:22.223Z,7.23
2018-11-10T10:33:51.782Z,7.33
2018-11-10T10:36:21.558Z,8.13
2018-11-10T10:38:51.109Z,7.73
2018-11-10T10:41:21.458Z,7.62
2018-11-10T10:43:51.311Z,8.43
2018-11-10T10:46:20.592Z,8.00
2018-11-10T10:48:50.202Z,9.83
2018-11-10T10:51:20.597Z,8.15
2018-11-10T10:53:50.178Z,7.90
2018-11-10T10:56:20.537Z,9.60
2018-11-10T10:58:49.682Z,9.77
2018-11-10T11:01:25.877Z,9.58
2018-11-10T11:03:55.555Z,9.90
2018-11-10T11:06:25.105Z,9.20
2018-11-10T11:08:54.491Z,9.20
2018-11-10T11:11:24.334Z,9.03
2018-11-10T11:13:53.666Z,10.70
2018-11-10T11:16:24.302Z,10.90
2018-11-10T11:18:53.577Z,10.07
2018-11-10T11:21:23.284Z,9.10
2018-11-10T11:23:52.573Z,8.50
2018-11-10T11:26:21.973Z,9.98
2018-11-10T11:28:51.278Z,10.40
2018-11-10T11:31:20.610Z,8.33
2018-11-10T11:33:50.275Z,10.40
2018-11-10T11:36:21.334Z,9.40
2018-11-10T11:38:50.955Z,10.33
2018-11-10T11:41:20.738Z,9.30
2018-11-10T11:43:50.235Z,9.90
2018-11-10T11:46:20.565Z,10.63
2018-11-10T11:48:50.170Z,10.50
2018-11-10T11:51:20.539Z,11.48
2018-11-10T11:53:50.603Z,9.63
2018-11-10T11:56:20.575Z,11.30
2018-11-10T11:58:50.154Z,11.30
2018-11-10T12:01:20.875Z,9.38
2018-11-10T12:03:50.210Z,11.40
2018-11-10T12:06:20.694Z,12.05
2018-11-10T12:08:49.357Z,10.07
2018-11-10T12:11:18.626Z,10.40
2018-11-10T12:13:48.338Z,10.23
2018-11-10T12:16:27.196Z,9.33
2018-11-10T12:18:46.499Z,10.03
2018-11-10T12:21:15.768Z,10.07
2018-11-10T12:23:45.644Z,10.60
2018-11-10T12:26:14.915Z,11.37
2018-11-10T12:28:44.329Z,10.50
2018-11-10T12:31:13.638Z,11.50
2018-11-10T12:33:43.213Z,11.30
2018-11-10T12:36:12.565Z,11.97
2018-11-10T12:38:41.950Z,10.30
2018-11-10T12:41:11.367Z,11.83
2018-11-10T12:43:40.690Z,10.73
2018-11-10T12:46:10.167Z,10.47
2018-11-10T12:48:39.290Z,11.20
2018-11-10T12:51:08.825Z,11.43
2018-11-10T12:53:39.157Z,10.25
2018-11-10T12:56:08.257Z,11.13
2018-11-10T12:58:37.802Z,11.10
2018-11-10T13:01:07.601Z,10.13
2018-11-10T13:03:36.978Z,10.45
2018-11-10T13:06:06.134Z,20.60
2018-11-10T13:08:35.656Z,12.37
2018-11-10T13:11:04.888Z,11.18
2018-11-10T13:13:34.675Z,12.07
2018-11-10T13:16:04.039Z,10.03
2018-11-10T13:18:33.602Z,11.47
2018-11-10T13:21:02.874Z,10.43
2018-11-10T13:23:32.447Z,9.83
2018-11-10T13:26:01.713Z,10.23
2018-11-10T13:28:31.280Z,9.30
2018-11-10T13:31:00.637Z,9.90
2018-11-10T13:33:30.622Z,9.83
2018-11-10T13:36:00.645Z,10.87
2018-11-10T13:38:33.621Z,10.67
2018-11-10T13:41:04.274Z,11.37
2018-11-10T13:43:33.722Z,12.55
2018-11-10T13:46:04.040Z,13.07
2018-11-10T13:48:34.963Z,12.83
2018-11-10T13:51:05.478Z,13.37
2018-11-10T13:53:35.791Z,13.80
2018-11-10T13:56:04.837Z,12.03
2018-11-10T13:58:34.727Z,14.47
2018-11-10T14:01:07.230Z,14.20
2018-11-10T14:03:38.738Z,10.48
2018-11-10T14:06:08.026Z,13.73
2018-11-10T14:08:37.255Z,14.23
2018-11-10T14:11:06.201Z,15.10
2018-11-10T14:13:35.806Z,14.40
2018-11-10T14:16:05.048Z,14.33
2018-11-10T14:18:34.622Z,14.20
2018-11-10T14:21:03.920Z,14.50
2018-11-10T14:23:33.691Z,13.05
2018-11-10T14:26:03.222Z,14.63
2018-11-10T14:28:32.909Z,13.37
2018-11-10T14:31:02.486Z,12.43
2018-11-10T14:33:32.073Z,13.07
2018-11-10T14:36:01.631Z,12.82
2018-11-10T14:38:30.921Z,13.53
2018-11-10T14:41:00.191Z,12.20
2018-11-10T14:43:29.765Z,13.08
2018-11-10T14:45:59.052Z,13.57
2018-11-10T14:48:28.872Z,13.45
2018-11-10T14:50:58.166Z,13.43
2018-11-10T14:53:27.950Z,12.00
2018-11-10T14:55:57.721Z,12.33
2018-11-10T14:58:26.443Z,13.68
2018-11-10T15:00:56.213Z,12.03
2018-11-10T15:03:25.770Z,12.70
2018-11-10T15:05:55.026Z,12.33
2018-11-10T15:08:24.312Z,12.40
2018-11-10T15:10:53.642Z,12.90
2018-11-10T15:13:22.972Z,14.17
2018-11-10T15:15:52.690Z,15.63
2018-11-10T15:18:22.334Z,14.47
2018-11-10T15:20:51.824Z,14.30
2018-11-10T15:23:21.300Z,12.30
2018-11-10T15:25:50.810Z,12.40
2018-11-10T15:28:21.147Z,12.23
2018-11-10T15:30:50.734Z,12.73
2018-11-10T15:33:21.136Z,13.03
2018-11-10T15:35:50.447Z,13.40
2018-11-10T15:38:21.198Z,12.58
2018-11-10T15:40:50.871Z,12.77
2018-11-10T15:43:21.120Z,12.20
2018-11-10T15:45:50.389Z,11.90
2018-11-10T15:48:21.114Z,11.65
2018-11-10T15:50:50.425Z,11.10
2018-11-10T15:53:21.315Z,11.35
2018-11-10T15:55:50.799Z,12.23
2018-11-10T15:58:21.393Z,14.00
2018-11-10T16:00:50.735Z,13.57
2018-11-10T16:03:21.419Z,12.88
2018-11-10T16:05:50.998Z,13.70
2018-11-10T16:08:21.246Z,14.75
2018-11-10T16:10:50.842Z,13.20
2018-11-10T16:13:21.466Z,12.60
2018-11-10T16:15:51.528Z,12.50
2018-11-10T16:18:21.661Z,11.53
2018-11-10T16:20:51.006Z,12.33
2018-11-10T16:23:21.258Z,12.00
2018-11-10T16:25:50.839Z,11.40
2018-11-10T16:28:21.277Z,12.68
2018-11-10T16:30:50.850Z,12.07
2018-11-10T16:33:21.222Z,12.90
2018-11-10T16:35:50.503Z,16.50
2018-11-10T16:38:21.551Z,10.20
2018-11-10T16:40:50.866Z,10.87
2018-11-10T16:43:21.274Z,11.57
2018-11-10T16:45:50.830Z,12.37
2018-11-10T16:48:21.314Z,11.43
2018-11-10T16:50:50.584Z,12.63
2018-11-10T16:53:21.456Z,12.93
2018-11-10T16:55:51.040Z,11.03
2018-11-10T16:58:21.662Z,11.15
2018-11-10T17:00:50.918Z,10.90
2018-11-10T17:03:21.273Z,9.70
2018-11-10T17:05:50.562Z,13.03
2018-11-10T17:08:20.760Z,10.67
2018-11-10T17:10:50.022Z,10.60
2018-11-10T17:13:19.394Z,12.20
2018-11-10T17:15:49.026Z,9.90
2018-11-10T17:18:18.182Z,11.87
2018-11-10T17:20:47.243Z,10.23
2018-11-10T17:23:16.405Z,10.70
2018-11-10T17:25:45.394Z,8.97
2018-11-10T17:28:15.252Z,9.40
2018-11-10T17:30:44.717Z,9.70
2018-11-10T17:33:14.497Z,10.03
2018-11-10T17:35:44.197Z,9.73
2018-11-10T17:38:13.507Z,10.30
2018-11-10T17:40:43.120Z,11.50
2018-11-10T17:43:12.411Z,10.00
2018-11-10T17:45:41.986Z,9.80
2018-11-10T17:48:11.337Z,9.90
2018-11-10T17:50:40.767Z,9.80
2018-11-10T17:53:10.110Z,9.53
2018-11-10T17:55:39.523Z,10.50
2018-11-10T17:58:09.095Z,9.77
2018-11-10T18:00:38.019Z,9.50
2018-11-10T18:03:07.591Z,9.50
2018-11-10T18:05:37.144Z,10.30
2018-11-10T18:08:05.842Z,10.70
2018-11-10T18:10:35.441Z,10.30
2018-11-10T18:13:04.284Z,10.03
2018-11-10T18:15:34.541Z,9.73
2018-11-10T18:18:03.814Z,10.90
2018-11-10T18:20:33.366Z,10.75
2018-11-10T18:23:02.621Z,9.80
2018-11-10T18:25:32.446Z,12.25
2018-11-10T18:28:02.722Z,12.47
2018-11-10T18:30:32.274Z,10.23
2018-11-10T18:33:01.539Z,9.40
2018-11-10T18:35:31.369Z,10.27
2018-11-10T18:38:00.643Z,9.80
2018-11-10T18:40:30.245Z,9.23
2018-11-10T18:42:59.218Z,9.70
2018-11-10T18:45:28.463Z,9.43
2018-11-10T18:47:57.768Z,10.70
2018-11-10T18:50:27.376Z,11.38
2018-11-10T18:52:56.638Z,9.13
2018-11-10T18:55:26.143Z,11.50
2018-11-10T18:57:56.888Z,11.83
2018-11-10T19:00:27.103Z,10.33
2018-11-10T19:02:57.466Z,11.17
2018-11-10T19:05:26.738Z,10.27
2018-11-10T19:07:56.310Z,11.00
2018-11-10T19:10:25.310Z,11.30
2018-11-10T19:12:54.643Z,11.13
2018-11-10T19:15:24.265Z,10.33
2018-11-10T19:17:53.647Z,10.93
2018-11-10T19:20:23.606Z,10.77
2018-11-10T19:22:53.190Z,10.77
2018-11-10T19:25:22.980Z,11.53
2018-11-10T19:27:52.555Z,12.53
2018-11-10T19:30:21.843Z,10.40
2018-11-10T19:32:51.871Z,10.60
2018-11-10T19:35:21.886Z,10.00
2018-11-10T19:37:51.418Z,9.70
2018-11-10T19:40:21.799Z,11.50
2018-11-10T19:42:51.401Z,11.60
2018-11-10T19:45:21.785Z,28.02
2018-11-10T19:47:51.051Z,61.57
2018-11-10T19:50:21.643Z,30.73
2018-11-10T19:52:51.355Z,34.63
2018-11-10T19:55:21.884Z,13.55
2018-11-10T19:57:51.686Z,13.10
2018-11-10T20:00:21.706Z,10.75
2018-11-10T20:02:50.986Z,12.00
2018-11-10T20:05:21.870Z,11.97
2018-11-10T20:07:51.439Z,11.10
2018-11-10T20:10:21.465Z,11.80
2018-11-10T20:12:50.826Z,14.50
2018-11-10T20:15:21.887Z,12.30
2018-11-10T20:17:51.474Z,10.98
2018-11-10T20:20:21.927Z,8.63
2018-11-10T20:22:51.698Z,9.87
2018-11-10T20:25:22.157Z,17.73
2018-11-10T20:27:51.606Z,21.43
2018-11-10T20:30:22.186Z,14.60
2018-11-10T20:32:51.709Z,10.13
2018-11-10T20:35:22.034Z,23.30
2018-11-10T20:37:51.616Z,14.37
2018-11-10T20:40:21.926Z,11.95
2018-11-10T20:42:51.569Z,10.40
2018-11-10T20:45:21.562Z,10.10
2018-11-10T20:47:50.521Z,10.97
2018-11-10T20:50:19.463Z,10.50
2018-11-10T20:52:48.407Z,9.27
2018-11-10T20:55:18.071Z,13.80
2018-11-10T20:57:47.703Z,15.43
2018-11-10T21:00:17.156Z,12.53
2018-11-10T21:02:46.218Z,11.57
2018-11-10T21:05:15.787Z,10.37
2018-11-10T21:07:44.729Z,11.10
2018-11-10T21:10:14.694Z,9.80
2018-11-10T21:12:43.718Z,9.00
2018-11-10T21:15:13.121Z,9.27
2018-11-10T21:17:42.966Z,8.50
2018-11-10T21:20:12.576Z,8.88
2018-11-10T21:22:41.656Z,9.47
2018-11-10T21:25:10.937Z,10.23
2018-11-10T21:27:40.527Z,10.97
2018-11-10T21:30:09.328Z,11.10
2018-11-10T21:32:38.986Z,14.77
2018-11-10T21:35:07.876Z,10.30
2018-11-10T21:37:37.873Z,11.93
2018-11-10T21:40:06.798Z,11.23
2018-11-10T21:42:36.060Z,8.80
2018-11-10T21:45:05.238Z,13.10
2018-11-10T21:47:34.806Z,10.80
2018-11-10T21:50:03.524Z,10.97
2018-11-10T21:52:33.077Z,10.53
2018-11-10T21:55:02.340Z,9.57
2018-11-10T21:57:32.314Z,9.58
2018-11-10T22:00:01.706Z,10.20
2018-11-10T22:02:31.271Z,9.20
2018-11-10T22:05:00.714Z,10.10
2018-11-10T22:07:30.573Z,9.80
2018-11-10T22:09:59.936Z,10.00
2018-11-10T22:12:29.363Z,10.23
2018-11-10T22:15:06.266Z,12.65
2018-11-10T22:17:35.275Z,14.37
2018-11-10T22:20:04.482Z,13.23
2018-11-10T22:22:34.092Z,12.70
2018-11-10T22:25:03.594Z,11.30
2018-11-10T22:27:32.925Z,11.90
2018-11-10T22:30:02.214Z,12.00
2018-11-10T22:32:31.782Z,13.43
2018-11-10T22:35:02.178Z,11.77
2018-11-10T22:37:31.451Z,11.77
2018-11-10T22:40:01.003Z,12.87
2018-11-10T22:42:30.135Z,15.77
2018-11-10T22:44:59.393Z,13.30
2018-11-10T22:47:28.687Z,25.10
2018-11-10T22:49:59.007Z,21.80
2018-11-10T22:52:28.282Z,13.77
2018-11-10T22:54:58.046Z,20.90
2018-11-10T22:57:27.334Z,18.03
2018-11-10T22:59:56.600Z,14.17
2018-11-10T23:02:26.266Z,11.27
2018-11-10T23:04:55.542Z,10.20
2018-11-10T23:07:25.105Z,9.78
2018-11-10T23:09:54.588Z,9.77
2018-11-10T23:12:24.388Z,9.95
2018-11-10T23:14:53.652Z,9.50
2018-11-10T23:17:23.230Z,9.58
2018-11-10T23:19:52.497Z,8.37
2018-11-10T23:22:21.430Z,9.10
2018-11-10T23:24:50.697Z,7.10
2018-11-10T23:27:20.450Z,7.30
2018-11-10T23:29:49.701Z,7.30
2018-11-10T23:32:19.241Z,6.90
2018-11-10T23:34:48.519Z,7.37
2018-11-10T23:37:18.066Z,7.00
2018-11-10T23:39:55.568Z,6.67
2018-11-10T23:42:25.498Z,6.78
2018-11-10T23:44:54.859Z,6.40
2018-11-10T23:47:24.401Z,5.80
2018-11-10T23:49:53.681Z,5.93
2018-11-10T23:52:23.242Z,5.35
2018-11-10T23:54:52.495Z,5.73
2018-11-10T23:57:21.790Z,6.53
2018-11-10T23:59:51.383Z,6.70
